createdAt,value
2023-03-04T00:00:12.176Z,101366.72
2023-03-04T00:02:39.423Z,101366.91
2023-03-04T00:05:07.798Z,101352.97
2023-03-04T00:07:34.781Z,101360.91
2023-03-04T00:10:02.065Z,101351.69
2023-03-04T00:12:29.057Z,101356.81
2023-03-04T00:14:56.008Z,101352.16
2023-03-04T00:17:23.005Z,101345.56
2023-03-04T00:19:50.067Z,101358.56
2023-03-04T00:22:17.049Z,101340.81
2023-03-04T00:24:44.004Z,101343.28
2023-03-04T00:27:11.027Z,101339.81
2023-03-04T00:29:38.036Z,101337.63
2023-03-04T00:32:05.359Z,101333.78
2023-03-04T00:34:32.928Z,101319.50
2023-03-04T00:37:01.676Z,101339.38
2023-03-04T00:39:28.904Z,101324.53
2023-03-04T00:41:56.218Z,101327.47
2023-03-04T00:44:23.150Z,101323.34
2023-03-04T00:46:50.160Z,101315.03
2023-03-04T00:49:17.255Z,101310.16
2023-03-04T00:51:44.244Z,101314.34
2023-03-04T00:54:11.356Z,101304.09
2023-03-04T00:56:38.869Z,101308.84
2023-03-04T00:59:06.084Z,101312.94
2023-03-04T01:01:33.124Z,101305.81
2023-03-04T01:04:00.181Z,101296.66
2023-03-04T01:06:27.284Z,101305.25
2023-03-04T01:08:54.264Z,101301.41
2023-03-04T01:11:21.532Z,101296.91
2023-03-04T01:13:48.607Z,101306.00
2023-03-04T01:16:16.099Z,101310.50
2023-03-04T01:18:43.416Z,101277.00
2023-03-04T01:21:10.687Z,101287.88
2023-03-04T01:23:37.744Z,101287.69
2023-03-04T01:26:05.245Z,101282.19
2023-03-04T01:28:35.711Z,101280.34
2023-03-04T01:31:04.186Z,101274.03
2023-03-04T01:33:31.523Z,101280.16
2023-03-04T01:35:58.653Z,101277.31
2023-03-04T01:38:26.157Z,101276.94
2023-03-04T01:40:53.818Z,101275.28
2023-03-04T01:43:29.271Z,101275.53
2023-03-04T01:45:57.721Z,101273.31
2023-03-04T01:48:38.126Z,101268.66
2023-03-04T01:51:15.410Z,101273.56
2023-03-04T01:53:44.234Z,101267.25
2023-03-04T01:56:20.467Z,101259.72
2023-03-04T01:59:10.646Z,101262.19
2023-03-04T02:01:39.634Z,101255.63
2023-03-04T02:04:08.110Z,101241.97
2023-03-04T02:06:40.096Z,101247.06
2023-03-04T02:09:08.485Z,101258.59
2023-03-04T02:11:37.992Z,101253.53
2023-03-04T02:14:06.447Z,101239.44
2023-03-04T02:16:33.703Z,101235.16
2023-03-04T02:19:01.536Z,101237.63
2023-03-04T02:21:34.740Z,101230.28
2023-03-04T02:24:38.138Z,101222.16
2023-03-04T02:27:05.284Z,101235.66
2023-03-04T02:29:32.347Z,101232.41
2023-03-04T02:31:59.646Z,101217.91
2023-03-04T02:34:34.351Z,101204.66
2023-03-04T02:37:04.058Z,101209.34
2023-03-04T02:39:39.718Z,101202.00
2023-03-04T02:42:07.605Z,101200.41
2023-03-04T02:44:43.530Z,101202.03
2023-03-04T02:47:14.177Z,101184.88
2023-03-04T02:49:42.069Z,101175.06
2023-03-04T02:52:15.101Z,101193.09
2023-03-04T02:54:42.090Z,101190.44
2023-03-04T02:57:12.121Z,101179.00
2023-03-04T02:59:42.658Z,101180.25
2023-03-04T03:02:14.138Z,101184.53
2023-03-04T03:04:41.751Z,101176.16
2023-03-04T03:07:12.285Z,101183.75
2023-03-04T03:09:40.086Z,101188.47
2023-03-04T03:12:07.393Z,101186.22
2023-03-04T03:14:34.432Z,101176.00
2023-03-04T03:17:03.396Z,101186.88
2023-03-04T03:19:31.632Z,101179.28
2023-03-04T03:22:00.908Z,101164.41
2023-03-04T03:24:28.065Z,101180.78
2023-03-04T03:26:56.271Z,101180.38
2023-03-04T03:29:23.480Z,101167.69
2023-03-04T03:31:50.538Z,101176.69
2023-03-04T03:34:18.976Z,101172.19
2023-03-04T03:36:45.917Z,101173.84
2023-03-04T03:39:12.796Z,101164.84
2023-03-04T03:41:39.930Z,101167.50
2023-03-04T03:44:06.924Z,101149.72
2023-03-04T03:46:35.233Z,101147.06
2023-03-04T03:49:02.451Z,101148.28
2023-03-04T03:51:29.562Z,101159.53
2023-03-04T03:53:56.584Z,101145.41
2023-03-04T03:56:23.496Z,101140.72
2023-03-04T03:58:50.477Z,101147.47
2023-03-04T04:01:17.526Z,101145.81
2023-03-04T04:03:44.453Z,101142.78
2023-03-04T04:06:11.452Z,101146.25
2023-03-04T04:08:38.653Z,101149.09
2023-03-04T04:11:05.731Z,101147.06
2023-03-04T04:13:32.765Z,101134.78
2023-03-04T04:15:59.875Z,101140.09
2023-03-04T04:18:27.182Z,101138.06
2023-03-04T04:20:54.726Z,101128.03
2023-03-04T04:23:22.092Z,101142.78
2023-03-04T04:25:49.017Z,101135.00
2023-03-04T04:28:16.088Z,101133.75
2023-03-04T04:30:43.129Z,101134.38
2023-03-04T04:33:10.587Z,101126.81
2023-03-04T04:35:38.806Z,101130.69
2023-03-04T04:38:07.721Z,101114.53
2023-03-04T04:40:34.751Z,101125.19
2023-03-04T04:43:02.135Z,101121.69
2023-03-04T04:45:29.372Z,101117.41
2023-03-04T04:47:57.398Z,101121.50
2023-03-04T04:50:25.694Z,101123.34
2023-03-04T04:52:52.781Z,101132.16
2023-03-04T04:55:19.803Z,101131.53
2023-03-04T04:57:46.806Z,101124.38
2023-03-04T05:00:14.524Z,101117.63
2023-03-04T05:02:41.459Z,101119.44
2023-03-04T05:05:08.944Z,101101.66
2023-03-04T05:07:36.264Z,101106.78
2023-03-04T05:10:04.880Z,101115.78
2023-03-04T05:12:31.863Z,101109.63
2023-03-04T05:14:59.022Z,101121.50
2023-03-04T05:17:26.128Z,101106.97
2023-03-04T05:19:53.087Z,101106.97
2023-03-04T05:22:20.127Z,101110.06
2023-03-04T05:24:47.162Z,101111.28
2023-03-04T05:27:14.232Z,101107.78
2023-03-04T05:29:43.118Z,101111.47
2023-03-04T05:32:10.164Z,101110.44
2023-03-04T05:34:37.257Z,101101.44
2023-03-04T05:37:04.232Z,101094.50
2023-03-04T05:39:31.138Z,101104.72
2023-03-04T05:41:58.149Z,101097.78
2023-03-04T05:44:25.264Z,101115.56
2023-03-04T05:46:52.311Z,101107.19
2023-03-04T05:49:20.178Z,101112.50
2023-03-04T05:51:47.129Z,101108.63
2023-03-04T05:54:14.106Z,101110.06
2023-03-04T05:56:41.128Z,101108.81
2023-03-04T05:59:08.196Z,101104.31
2023-03-04T06:01:35.321Z,101104.31
2023-03-04T06:04:02.489Z,101114.16
2023-03-04T06:06:29.648Z,101114.97
2023-03-04T06:08:56.799Z,101103.91
2023-03-04T06:11:23.622Z,101114.56
2023-03-04T06:13:50.639Z,101111.47
2023-03-04T06:16:17.694Z,101113.72
2023-03-04T06:18:44.694Z,101113.13
2023-03-04T06:21:11.751Z,101116.19
2023-03-04T06:23:38.764Z,101114.34
2023-03-04T06:26:09.498Z,101122.53
2023-03-04T06:28:36.525Z,101117.84
2023-03-04T06:31:03.451Z,101109.22
2023-03-04T06:33:30.613Z,101116.59
2023-03-04T06:35:58.019Z,101112.72
2023-03-04T06:38:26.308Z,101105.75
2023-03-04T06:40:57.032Z,101116.00
2023-03-04T06:43:24.609Z,101113.31
2023-03-04T06:45:51.827Z,101114.59
2023-03-04T06:48:18.866Z,101115.59
2023-03-04T06:50:46.176Z,101114.97
2023-03-04T06:53:13.155Z,101117.25
2023-03-04T06:55:40.010Z,101111.72
2023-03-04T06:58:07.124Z,101112.53
2023-03-04T07:00:34.185Z,101119.09
2023-03-04T07:03:01.797Z,101116.84
2023-03-04T07:05:30.060Z,101113.34
2023-03-04T07:07:57.101Z,101116.84
2023-03-04T07:10:24.006Z,101116.00
2023-03-04T07:12:51.076Z,101122.38
2023-03-04T07:15:18.220Z,101113.16
2023-03-04T07:17:45.193Z,101117.25
2023-03-04T07:20:12.631Z,101120.50
2023-03-04T07:22:39.587Z,101122.97
2023-03-04T07:25:07.393Z,101123.19
2023-03-04T07:27:34.596Z,101123.78
2023-03-04T07:30:02.051Z,101121.53
2023-03-04T07:32:30.178Z,101129.72
2023-03-04T07:34:57.324Z,101120.91
2023-03-04T07:37:24.786Z,101117.66
2023-03-04T07:39:51.683Z,101116.00
2023-03-04T07:42:18.611Z,101120.31
2023-03-04T07:44:53.447Z,101115.78
2023-03-04T07:47:20.708Z,101123.56
2023-03-04T07:49:47.870Z,101109.66
2023-03-04T07:52:15.053Z,101117.03
2023-03-04T07:54:42.096Z,101117.84
2023-03-04T07:57:09.090Z,101128.28
2023-03-04T07:59:36.134Z,101126.41
2023-03-04T08:02:03.221Z,101120.66
2023-03-04T08:04:30.312Z,101109.81
2023-03-04T08:06:57.580Z,101108.97
2023-03-04T08:09:24.669Z,101109.13
2023-03-04T08:11:51.654Z,101105.03
2023-03-04T08:14:18.739Z,101103.38
2023-03-04T08:16:45.775Z,101107.44
2023-03-04T08:19:13.170Z,101105.38
2023-03-04T08:21:40.246Z,101101.84
2023-03-04T08:24:10.270Z,101099.59
2023-03-04T08:26:42.620Z,101108.38
2023-03-04T08:29:15.107Z,101107.97
2023-03-04T08:31:42.877Z,101099.56
2023-03-04T08:34:10.928Z,101097.50
2023-03-04T08:36:38.010Z,101087.59
2023-03-04T08:39:05.850Z,101096.81
2023-03-04T08:41:33.123Z,101089.41
2023-03-04T08:44:00.952Z,101095.75
2023-03-04T08:46:28.836Z,101089.16
2023-03-04T08:48:56.162Z,101088.31
2023-03-04T08:51:23.670Z,101080.91
2023-03-04T08:53:50.691Z,101075.13
2023-03-04T08:56:18.159Z,101078.78
2023-03-04T08:58:45.344Z,101081.41
2023-03-04T09:01:14.700Z,101082.34
2023-03-04T09:03:42.957Z,101083.34
2023-03-04T09:06:14.324Z,101076.34
2023-03-04T09:08:42.030Z,101072.41
2023-03-04T09:11:09.472Z,101063.75
2023-03-04T09:13:36.937Z,101079.53
2023-03-04T09:16:09.776Z,101074.56
2023-03-04T09:18:36.909Z,101091.34
2023-03-04T09:21:04.272Z,101073.63
2023-03-04T09:23:31.108Z,101083.19
2023-03-04T09:25:58.207Z,101087.44
2023-03-04T09:28:25.319Z,101081.81
2023-03-04T09:30:52.458Z,101073.94
2023-03-04T09:33:19.667Z,101075.16
2023-03-04T09:35:48.815Z,101074.69
2023-03-04T09:38:15.966Z,101074.03
2023-03-04T09:40:47.342Z,101095.09
2023-03-04T09:43:29.303Z,101070.41
2023-03-04T09:46:07.208Z,101083.53
2023-03-04T09:48:50.453Z,101081.81
2023-03-04T09:51:52.994Z,101092.25
2023-03-04T09:54:57.290Z,101096.25
2023-03-04T09:57:49.009Z,101088.16
2023-03-04T10:00:20.269Z,101095.19
2023-03-04T10:03:14.214Z,101087.84
2023-03-04T10:06:01.576Z,101098.44
2023-03-04T10:08:43.599Z,101090.78
2023-03-04T10:11:18.424Z,101086.16
2023-03-04T10:13:58.346Z,101089.28
2023-03-04T10:16:35.983Z,101087.47
2023-03-04T10:19:30.425Z,101088.88
2023-03-04T10:21:57.850Z,101091.91
2023-03-04T10:24:29.643Z,101089.94
2023-03-04T10:27:05.617Z,101091.28
2023-03-04T10:29:33.954Z,101086.63
2023-03-04T10:32:01.034Z,101086.19
2023-03-04T10:34:28.180Z,101085.13
2023-03-04T10:37:07.576Z,101080.72
2023-03-04T10:39:45.738Z,101085.63
2023-03-04T10:42:15.826Z,101079.09
2023-03-04T10:44:56.359Z,101078.28
2023-03-04T10:47:27.062Z,101069.44
2023-03-04T10:50:04.365Z,101084.31
2023-03-04T10:52:47.839Z,101081.28
2023-03-04T10:55:42.702Z,101078.84
2023-03-04T10:58:15.828Z,101073.00
2023-03-04T11:00:43.229Z,101077.16
2023-03-04T11:03:29.809Z,101078.19
2023-03-04T11:06:08.174Z,101089.81
2023-03-04T11:08:35.348Z,101078.28
2023-03-04T11:11:02.473Z,101078.88
2023-03-04T11:13:31.602Z,101085.50
2023-03-04T11:16:06.610Z,101091.69
2023-03-04T11:18:41.168Z,101087.00
2023-03-04T11:21:15.857Z,101097.63
2023-03-04T11:24:00.034Z,101094.25
2023-03-04T11:26:50.316Z,101099.19
2023-03-04T11:29:46.088Z,101098.56
2023-03-04T11:32:22.097Z,101103.84
2023-03-04T11:35:20.484Z,101101.06
2023-03-04T11:38:15.302Z,101101.44
2023-03-04T11:40:58.055Z,101098.16
2023-03-04T11:43:42.163Z,101090.34
2023-03-04T11:46:32.018Z,101090.00
2023-03-04T11:49:26.504Z,101089.19
2023-03-04T11:52:57.002Z,101087.59
2023-03-04T11:56:01.133Z,101095.97
2023-03-04T11:59:04.417Z,101088.06
2023-03-04T12:02:18.300Z,101094.81
2023-03-04T12:05:09.789Z,101085.50
2023-03-04T12:08:38.082Z,101081.09
2023-03-04T12:11:18.463Z,101095.75
2023-03-04T12:14:09.429Z,101090.63
2023-03-04T12:16:50.575Z,101087.94
2023-03-04T12:20:06.128Z,101081.44
2023-03-04T12:22:44.084Z,101088.97
2023-03-04T12:25:23.312Z,101078.59
2023-03-04T12:28:16.130Z,101089.88
2023-03-04T12:31:11.461Z,101078.44
2023-03-04T12:34:22.678Z,101091.00
2023-03-04T12:37:20.851Z,101084.53
2023-03-04T12:40:30.605Z,101083.03
2023-03-04T12:43:09.835Z,101078.38
2023-03-04T12:45:49.689Z,101083.16
2023-03-04T12:48:33.411Z,101085.97
2023-03-04T12:51:05.499Z,101075.03
2023-03-04T12:54:05.862Z,101082.50
2023-03-04T12:56:50.820Z,101085.97
2023-03-04T12:59:21.153Z,101080.63
2023-03-04T13:02:20.602Z,101078.16
2023-03-04T13:05:45.117Z,101084.56
2023-03-04T13:08:51.328Z,101079.81
2023-03-04T13:11:28.103Z,101081.88
2023-03-04T13:14:18.186Z,101083.75
2023-03-04T13:16:48.801Z,101081.66
2023-03-04T13:19:52.994Z,101084.91
2023-03-04T13:22:33.687Z,101075.25
2023-03-04T13:25:32.663Z,101077.34
2023-03-04T13:28:05.358Z,101077.59
2023-03-04T13:30:32.409Z,101094.47
2023-03-04T13:33:22.054Z,101072.94
2023-03-04T13:35:55.150Z,101084.34
2023-03-04T13:38:28.242Z,101092.84
2023-03-04T13:41:18.535Z,101069.44
2023-03-04T13:43:56.340Z,101088.28
2023-03-04T13:46:23.924Z,101089.31
2023-03-04T13:48:51.130Z,101093.03
2023-03-04T13:51:40.377Z,101082.09
2023-03-04T13:54:32.164Z,101098.63
2023-03-04T13:57:02.903Z,101078.25
2023-03-04T13:59:53.169Z,101095.81
2023-03-04T14:02:26.112Z,101087.19
2023-03-04T14:05:02.038Z,101088.03
2023-03-04T14:07:36.524Z,101081.47
2023-03-04T14:10:12.560Z,101089.59
2023-03-04T14:12:48.310Z,101080.47
2023-03-04T14:15:24.435Z,101087.78
2023-03-04T14:17:58.569Z,101073.69
2023-03-04T14:20:42.599Z,101084.38
2023-03-04T14:23:31.508Z,101080.72
2023-03-04T14:26:15.874Z,101077.47
2023-03-04T14:28:48.464Z,101082.69
2023-03-04T14:31:22.217Z,101084.63
2023-03-04T14:33:59.753Z,101071.25
2023-03-04T14:36:27.220Z,101067.03
2023-03-04T14:38:58.959Z,101085.53
2023-03-04T14:41:36.047Z,101076.56
2023-03-04T14:44:37.917Z,101084.44
2023-03-04T14:47:22.236Z,101073.44
2023-03-04T14:49:50.072Z,101082.78
2023-03-04T14:52:37.295Z,101081.38
2023-03-04T14:55:16.595Z,101075.38
2023-03-04T14:57:47.187Z,101083.47
2023-03-04T15:00:20.101Z,101064.75
2023-03-04T15:03:07.972Z,101068.09
2023-03-04T15:05:36.344Z,101073.72
2023-03-04T15:08:06.809Z,101066.53
2023-03-04T15:10:38.637Z,101068.16
2023-03-04T15:13:09.282Z,101059.78
2023-03-04T15:15:48.823Z,101067.63
2023-03-04T15:18:26.717Z,101062.91
2023-03-04T15:21:00.654Z,101052.66
2023-03-04T15:23:31.642Z,101062.44
2023-03-04T15:26:02.229Z,101053.19
2023-03-04T15:28:36.758Z,101060.75
2023-03-04T15:31:06.473Z,101061.63
2023-03-04T15:33:34.104Z,101061.19
2023-03-04T15:36:02.770Z,101056.44
2023-03-04T15:38:30.555Z,101047.97
2023-03-04T15:40:59.457Z,101051.91
2023-03-04T15:43:27.158Z,101046.84
2023-03-04T15:45:54.325Z,101040.03
2023-03-04T15:48:21.741Z,101050.84
2023-03-04T15:50:54.079Z,101053.09
2023-03-04T15:53:39.950Z,101043.78
2023-03-04T15:56:13.843Z,101044.41
2023-03-04T15:58:41.045Z,101053.63
2023-03-04T16:01:11.038Z,101043.25
2023-03-04T16:03:38.257Z,101034.38
2023-03-04T16:06:11.199Z,101049.31
2023-03-04T16:08:39.337Z,101048.03
2023-03-04T16:11:06.757Z,101042.53
2023-03-04T16:13:33.790Z,101042.41
2023-03-04T16:16:00.916Z,101041.59
2023-03-04T16:18:27.874Z,101050.00
2023-03-04T16:20:55.086Z,101046.28
2023-03-04T16:23:24.613Z,101048.50
2023-03-04T16:25:55.373Z,101049.88
2023-03-04T16:28:23.318Z,101042.88
2023-03-04T16:30:50.972Z,101049.28
2023-03-04T16:33:17.980Z,101054.22
2023-03-04T16:35:46.382Z,101050.91
2023-03-04T16:38:28.023Z,101047.59
2023-03-04T16:40:56.341Z,101052.09
2023-03-04T16:43:23.847Z,101056.34
2023-03-04T16:45:51.674Z,101058.97
2023-03-04T16:48:20.250Z,101052.75
2023-03-04T16:50:47.676Z,101055.09
2023-03-04T16:53:28.088Z,101054.81
2023-03-04T16:55:55.161Z,101056.16
2023-03-04T16:58:22.295Z,101057.47
2023-03-04T17:00:49.397Z,101060.00
2023-03-04T17:03:16.516Z,101064.38
2023-03-04T17:05:44.254Z,101065.47
2023-03-04T17:08:11.385Z,101068.66
2023-03-04T17:10:38.438Z,101064.63
2023-03-04T17:13:06.329Z,101074.56
2023-03-04T17:15:33.311Z,101059.81
2023-03-04T17:18:00.404Z,101070.34
2023-03-04T17:20:27.496Z,101074.09
2023-03-04T17:22:54.617Z,101077.22
2023-03-04T17:25:21.532Z,101082.34
2023-03-04T17:27:48.553Z,101079.34
2023-03-04T17:30:15.865Z,101085.53
2023-03-04T17:32:42.990Z,101085.38
2023-03-04T17:35:11.389Z,101093.38
2023-03-04T17:37:38.632Z,101092.16
2023-03-04T17:40:08.741Z,101094.44
2023-03-04T17:42:36.082Z,101087.09
2023-03-04T17:45:03.563Z,101096.13
2023-03-04T17:47:31.397Z,101084.28
2023-03-04T17:49:58.571Z,101079.19
2023-03-04T17:52:25.576Z,101090.69
2023-03-04T17:54:52.594Z,101095.22
2023-03-04T17:57:19.676Z,101097.50
2023-03-04T17:59:46.704Z,101092.59
2023-03-04T18:02:16.735Z,101096.88
2023-03-04T18:04:45.940Z,101101.63
2023-03-04T18:07:13.030Z,101091.16
2023-03-04T18:09:39.997Z,101086.66
2023-03-04T18:12:07.461Z,101088.69
2023-03-04T18:17:15.510Z,101090.75
2023-03-04T18:19:42.647Z,101094.00
2023-03-04T18:22:09.799Z,101085.84
2023-03-04T18:24:39.513Z,101079.91
2023-03-04T18:27:06.837Z,101090.56
2023-03-04T18:32:18.811Z,101095.28
2023-03-04T18:34:45.796Z,101093.25
2023-03-04T18:37:12.837Z,101091.63
2023-03-04T18:39:39.804Z,101082.81
2023-03-04T18:42:06.761Z,101076.44
2023-03-04T18:44:33.977Z,101074.22
2023-03-04T18:47:01.424Z,101079.13
2023-03-04T18:49:28.375Z,101079.13
2023-03-04T18:51:55.664Z,101080.75
2023-03-04T18:54:22.802Z,101075.84
2023-03-04T18:56:55.238Z,101081.38
2023-03-04T18:59:31.368Z,101078.53
2023-03-04T19:02:04.480Z,101086.75
2023-03-04T19:04:31.933Z,101086.75
2023-03-04T19:07:00.283Z,101087.16
2023-03-04T19:09:27.575Z,101084.94
2023-03-04T19:11:54.513Z,101092.72
2023-03-04T19:14:21.985Z,101096.81
2023-03-04T19:16:48.902Z,101094.56
2023-03-04T19:19:16.208Z,101090.47
2023-03-04T19:21:43.411Z,101086.97
2023-03-04T19:24:10.349Z,101088.00
2023-03-04T19:26:37.257Z,101090.69
2023-03-04T19:29:05.582Z,101090.28
2023-03-04T19:31:33.041Z,101083.72
2023-03-04T19:34:00.113Z,101086.38
2023-03-04T19:36:27.154Z,101095.41
2023-03-04T19:38:55.435Z,101093.75
2023-03-04T19:41:22.958Z,101087.41
2023-03-04T19:43:50.378Z,101091.72
2023-03-04T19:46:17.676Z,101087.41
2023-03-04T19:48:45.098Z,101096.81
2023-03-04T19:51:26.111Z,101100.09
2023-03-04T19:53:54.480Z,101096.81
2023-03-04T19:56:22.716Z,101096.00
2023-03-04T19:58:50.505Z,101104.81
2023-03-04T20:01:30.506Z,101109.13
2023-03-04T20:04:01.113Z,101106.06
2023-03-04T20:06:28.883Z,101100.53
2023-03-04T20:08:59.045Z,101097.47
2023-03-04T20:11:27.370Z,101095.22
2023-03-04T20:13:55.066Z,101114.50
2023-03-04T20:16:22.119Z,101101.59
2023-03-04T20:18:49.115Z,101100.16
2023-03-04T20:21:16.936Z,101108.38
2023-03-04T20:23:44.279Z,101099.75
2023-03-04T20:26:12.004Z,101106.72
2023-03-04T20:28:50.337Z,101101.81
2023-03-04T20:31:24.160Z,101112.47
2023-03-04T20:33:53.082Z,101110.03
2023-03-04T20:36:23.052Z,101113.72
2023-03-04T20:38:52.416Z,101122.72
2023-03-04T20:41:26.370Z,101124.56
2023-03-04T20:43:53.405Z,101123.97
2023-03-04T20:46:39.628Z,101115.97
2023-03-04T20:49:15.073Z,101121.72
2023-03-04T20:51:42.869Z,101126.00
2023-03-04T20:54:10.429Z,101122.75
2023-03-04T20:56:38.880Z,101117.41
2023-03-04T20:59:09.371Z,101125.41
2023-03-04T21:01:41.802Z,101114.13
2023-03-04T21:04:08.974Z,101118.03
2023-03-04T21:06:38.417Z,101122.53
2023-03-04T21:09:09.157Z,101115.38
2023-03-04T21:11:40.545Z,101120.31
2023-03-04T21:14:26.226Z,101119.06
2023-03-04T21:16:59.578Z,101118.06
2023-03-04T21:19:39.800Z,101111.47
2023-03-04T21:22:06.974Z,101108.22
2023-03-04T21:24:36.293Z,101102.69
2023-03-04T21:27:04.493Z,101103.09
2023-03-04T21:29:31.463Z,101095.72
2023-03-04T21:32:23.251Z,101095.31
2023-03-04T21:34:52.362Z,101092.47
2023-03-04T21:37:21.824Z,101084.69
2023-03-04T21:39:48.763Z,101076.28
2023-03-04T21:42:15.733Z,101077.31
2023-03-04T21:44:49.596Z,101078.97
2023-03-04T21:47:17.843Z,101067.69
2023-03-04T21:49:44.964Z,101063.81
2023-03-04T21:52:13.006Z,101065.88
2023-03-04T21:54:39.882Z,101070.56
2023-03-04T21:57:06.832Z,101072.41
2023-03-04T21:59:33.710Z,101064.66
2023-03-04T22:02:01.781Z,101065.88
2023-03-04T22:04:28.751Z,101058.09
2023-03-04T22:06:55.628Z,101069.13
2023-03-04T22:09:22.750Z,101067.91
2023-03-04T22:11:49.799Z,101067.50
2023-03-04T22:14:16.724Z,101058.47
2023-03-04T22:16:59.038Z,101056.84
2023-03-04T22:19:31.594Z,101049.69
2023-03-04T22:21:59.217Z,101051.13
2023-03-04T22:24:26.513Z,101060.53
2023-03-04T22:26:53.682Z,101056.25
2023-03-04T22:29:20.878Z,101054.41
2023-03-04T22:31:48.097Z,101046.63
2023-03-04T22:34:15.811Z,101043.56
2023-03-04T22:36:46.429Z,101038.03
2023-03-04T22:39:19.198Z,101042.34
2023-03-04T22:41:46.736Z,101043.34
2023-03-04T22:44:14.004Z,101037.63
2023-03-04T22:46:41.707Z,101025.34
2023-03-04T22:49:12.775Z,101028.22
2023-03-04T22:51:42.390Z,101033.94
2023-03-04T22:54:17.690Z,101031.50
2023-03-04T22:56:45.207Z,101022.91
2023-03-04T22:59:12.814Z,101017.56
2023-03-04T23:01:40.209Z,101017.34
2023-03-04T23:04:07.699Z,101031.47
2023-03-04T23:06:35.013Z,101019.19
2023-03-04T23:09:02.066Z,101015.50
2023-03-04T23:11:32.836Z,101010.19
2023-03-04T23:14:02.042Z,101013.25
2023-03-04T23:16:29.293Z,101001.41
2023-03-04T23:18:59.112Z,101001.41
2023-03-04T23:21:28.368Z,100997.09
2023-03-04T23:23:55.456Z,100990.56
2023-03-04T23:26:29.011Z,101004.25
2023-03-04T23:28:57.195Z,100983.63
2023-03-04T23:31:25.474Z,101004.25
2023-03-04T23:33:57.280Z,100990.97
2023-03-04T23:36:29.233Z,100993.84
2023-03-04T23:38:57.341Z,100997.09
2023-03-04T23:41:27.660Z,100989.94
2023-03-04T23:43:57.394Z,100988.13
2023-03-04T23:46:25.663Z,100982.59
2023-03-04T23:48:54.291Z,100978.31
2023-03-04T23:51:26.896Z,100982.19
2023-03-04T23:53:54.900Z,100979.72
2023-03-04T23:56:25.938Z,100974.41
2023-03-04T23:58:53.493Z,100975.63
